createdAt,value
2018-04-14T00:02:19.419Z,7.80
2018-04-14T00:04:46.568Z,8.20
2018-04-14T00:07:13.691Z,8.10
2018-04-14T00:09:41.580Z,8.20
2018-04-14T00:12:07.988Z,8.20
2018-04-14T00:14:34.391Z,8.20
2018-04-14T00:17:00.781Z,8.30
2018-04-14T00:19:27.190Z,8.30
2018-04-14T00:21:53.684Z,8.20
2018-04-14T00:24:20.234Z,8.20
2018-04-14T00:26:47.461Z,8.30
2018-04-14T00:29:13.911Z,8.30
2018-04-14T00:31:40.343Z,8.40
2018-04-14T00:34:06.758Z,8.40
2018-04-14T00:36:33.160Z,8.30
2018-04-14T00:38:59.553Z,8.20
2018-04-14T00:41:25.943Z,8.20
2018-04-14T00:43:52.339Z,8.30
2018-04-14T00:46:18.730Z,8.20
2018-04-14T00:48:45.142Z,8.00
2018-04-14T00:51:11.606Z,7.90
2018-04-14T00:53:46.268Z,7.90
2018-04-14T00:56:14.186Z,8.00
2018-04-14T00:58:40.609Z,8.00
2018-04-14T01:01:07.043Z,8.10
2018-04-14T01:03:33.435Z,8.00
2018-04-14T01:06:01.351Z,7.90
2018-04-14T01:08:27.761Z,7.80
2018-04-14T01:10:54.895Z,8.00
2018-04-14T01:13:21.270Z,7.90
2018-04-14T01:15:47.673Z,7.90
2018-04-14T01:18:14.817Z,7.80
2018-04-14T01:20:41.954Z,7.80
2018-04-14T01:23:08.355Z,7.80
2018-04-14T01:25:35.119Z,7.90
2018-04-14T01:28:02.258Z,8.10
2018-04-14T01:30:28.658Z,8.10
2018-04-14T01:32:55.162Z,8.10
2018-04-14T01:35:21.615Z,8.10
2018-04-14T01:37:48.151Z,8.00
2018-04-14T01:40:14.562Z,8.10
2018-04-14T01:42:40.978Z,8.00
2018-04-14T01:45:08.850Z,8.10
2018-04-14T01:47:35.993Z,8.10
2018-04-14T01:50:03.882Z,8.00
2018-04-14T01:52:30.270Z,8.00
2018-04-14T01:54:56.691Z,8.00
2018-04-14T01:57:23.083Z,7.80
2018-04-14T01:59:49.467Z,7.90
2018-04-14T02:02:15.865Z,7.80
2018-04-14T02:04:42.243Z,7.70
2018-04-14T02:07:08.635Z,7.70
2018-04-14T02:09:35.042Z,7.60
2018-04-14T02:12:01.455Z,7.50
2018-04-14T02:14:27.924Z,7.40
2018-04-14T02:16:54.346Z,7.30
2018-04-14T02:19:20.747Z,7.20
2018-04-14T02:21:47.115Z,7.20
2018-04-14T02:24:13.491Z,7.20
2018-04-14T02:26:39.877Z,7.20
2018-04-14T02:29:06.445Z,7.20
2018-04-14T02:31:32.818Z,7.20
2018-04-14T02:33:59.297Z,6.90
2018-04-14T02:36:25.723Z,6.90
2018-04-14T02:38:52.115Z,7.10
2018-04-14T02:41:18.504Z,7.20
2018-04-14T02:43:44.899Z,7.40
2018-04-14T02:46:12.057Z,7.50
2018-04-14T02:48:38.492Z,7.40
2018-04-14T02:51:04.894Z,7.60
2018-04-14T02:53:32.802Z,7.50
2018-04-14T02:55:59.906Z,7.70
2018-04-14T02:58:26.296Z,7.70
2018-04-14T03:00:52.708Z,7.60
2018-04-14T03:03:19.095Z,7.70
2018-04-14T03:05:45.482Z,7.90
2018-04-14T03:08:11.934Z,8.00
2018-04-14T03:10:38.341Z,8.00
2018-04-14T03:13:04.721Z,7.90
2018-04-14T03:15:31.103Z,7.90
2018-04-14T03:17:57.500Z,7.90
2018-04-14T03:20:23.885Z,8.00
2018-04-14T03:22:50.263Z,7.90
2018-04-14T03:25:16.884Z,7.90
2018-04-14T03:27:43.275Z,7.70
2018-04-14T03:30:09.750Z,7.40
2018-04-14T03:32:36.142Z,7.20
2018-04-14T03:35:02.624Z,7.30
2018-04-14T03:37:30.515Z,7.40
2018-04-14T03:39:57.653Z,7.40
2018-04-14T03:42:24.783Z,7.50
2018-04-14T03:44:51.205Z,7.50
2018-04-14T03:47:17.612Z,7.70
2018-04-14T03:49:44.037Z,7.90
2018-04-14T03:52:10.432Z,8.00
2018-04-14T03:54:37.612Z,7.90
2018-04-14T03:57:04.011Z,7.80
2018-04-14T03:59:30.405Z,7.80
2018-04-14T04:01:56.788Z,7.60
2018-04-14T04:04:23.961Z,7.40
2018-04-14T04:06:50.392Z,7.40
2018-04-14T04:09:16.800Z,7.20
2018-04-14T04:11:44.026Z,6.80
2018-04-14T04:14:11.220Z,6.80
2018-04-14T04:16:37.668Z,6.80
2018-04-14T04:19:16.309Z,6.90
2018-04-14T04:21:54.869Z,7.00
2018-04-14T04:24:34.443Z,7.50
2018-04-14T04:27:01.588Z,7.60
2018-04-14T04:29:28.006Z,7.60
2018-04-14T04:31:55.154Z,7.00
2018-04-14T04:34:21.559Z,7.00
2018-04-14T04:36:48.052Z,7.00
2018-04-14T04:39:14.502Z,7.00
2018-04-14T04:41:40.956Z,6.80
2018-04-14T04:44:08.105Z,6.80
2018-04-14T04:46:35.260Z,6.80
2018-04-14T04:49:01.652Z,6.70
2018-04-14T04:51:28.048Z,6.80
2018-04-14T04:53:55.213Z,6.90
2018-04-14T04:56:21.615Z,6.80
2018-04-14T04:58:48.042Z,6.70
2018-04-14T05:01:16.042Z,6.80
2018-04-14T05:03:43.184Z,6.70
2018-04-14T05:06:09.598Z,6.70
2018-04-14T05:08:37.474Z,6.80
2018-04-14T05:11:04.623Z,6.80
2018-04-14T05:13:31.820Z,6.90
2018-04-14T05:15:58.228Z,6.80
2018-04-14T05:18:24.647Z,6.90
2018-04-14T05:20:51.787Z,7.00
2018-04-14T05:23:18.931Z,7.00
2018-04-14T05:25:46.803Z,7.00
2018-04-14T05:28:13.211Z,7.00
2018-04-14T05:30:40.351Z,7.40
2018-04-14T05:33:06.756Z,7.40
2018-04-14T05:35:33.319Z,7.60
2018-04-14T05:37:59.710Z,7.70
2018-04-14T05:40:26.159Z,7.90
2018-04-14T05:42:52.575Z,8.40
2018-04-14T05:45:18.984Z,8.70
2018-04-14T05:47:46.108Z,9.10
2018-04-14T05:50:12.530Z,9.10
2018-04-14T05:52:38.925Z,9.30
2018-04-14T05:55:05.330Z,9.50
2018-04-14T05:57:32.536Z,10.40
2018-04-14T05:59:58.947Z,10.40
2018-04-14T06:02:25.473Z,11.00
2018-04-14T06:04:51.909Z,11.60
2018-04-14T06:07:18.351Z,12.00
2018-04-14T06:09:44.771Z,12.60
2018-04-14T06:12:11.186Z,13.00
2018-04-14T06:14:38.301Z,13.80
2018-04-14T06:17:06.193Z,14.30
2018-04-14T06:19:33.342Z,14.80
2018-04-14T06:22:00.483Z,14.40
2018-04-14T06:24:27.100Z,14.30
2018-04-14T06:26:53.522Z,14.20
2018-04-14T06:29:19.944Z,14.20
2018-04-14T06:31:46.363Z,14.90
2018-04-14T06:34:12.798Z,15.50
2018-04-14T06:36:39.224Z,15.60
2018-04-14T06:39:05.675Z,15.60
2018-04-14T06:41:32.202Z,15.30
2018-04-14T06:43:58.628Z,15.40
2018-04-14T06:46:25.072Z,15.40
2018-04-14T06:48:51.462Z,15.60
2018-04-14T06:51:17.852Z,16.10
2018-04-14T06:53:44.305Z,16.20
2018-04-14T06:56:10.694Z,16.80
2018-04-14T06:58:37.165Z,16.60
2018-04-14T07:01:04.355Z,16.50
2018-04-14T07:03:31.489Z,17.30
2018-04-14T07:05:58.654Z,17.70
2018-04-14T07:08:25.834Z,17.40
2018-04-14T07:10:52.231Z,17.40
2018-04-14T07:13:19.386Z,17.50
2018-04-14T07:15:46.526Z,17.40
2018-04-14T07:18:12.927Z,17.40
2018-04-14T07:20:39.376Z,17.30
2018-04-14T07:23:05.773Z,17.50
2018-04-14T07:25:32.217Z,17.90
2018-04-14T07:27:58.625Z,18.00
2018-04-14T07:30:25.037Z,18.10
2018-04-14T07:32:52.171Z,18.50
2018-04-14T07:35:19.310Z,18.80
2018-04-14T07:37:45.721Z,18.80
2018-04-14T07:40:12.153Z,19.10
2018-04-14T07:42:39.409Z,19.50
2018-04-14T07:45:05.830Z,19.40
2018-04-14T07:47:32.239Z,19.40
2018-04-14T07:49:58.832Z,19.30
2018-04-14T07:52:25.240Z,19.30
2018-04-14T07:54:51.639Z,19.30
2018-04-14T07:57:18.040Z,19.50
2018-04-14T07:59:44.435Z,19.70
2018-04-14T08:02:10.971Z,19.90
2018-04-14T08:04:37.392Z,20.10
2018-04-14T08:07:03.792Z,20.00
2018-04-14T08:09:30.237Z,20.10
2018-04-14T08:11:56.645Z,20.10
2018-04-14T08:14:23.027Z,20.10
2018-04-14T08:16:49.421Z,20.10
2018-04-14T08:19:15.835Z,20.20
2018-04-14T08:21:42.972Z,19.90
2018-04-14T08:24:09.406Z,19.90
2018-04-14T08:26:36.609Z,19.60
2018-04-14T08:29:03.164Z,19.50
2018-04-14T08:31:29.580Z,19.50
2018-04-14T08:33:55.963Z,19.50
2018-04-14T08:36:22.386Z,19.80
2018-04-14T08:38:48.843Z,19.80
2018-04-14T08:41:16.032Z,19.60
2018-04-14T08:43:42.469Z,19.60
2018-04-14T08:46:08.864Z,19.50
2018-04-14T08:48:36.002Z,19.30
2018-04-14T08:51:03.167Z,19.80
2018-04-14T08:53:30.298Z,19.80
2018-04-14T08:55:56.794Z,19.80
2018-04-14T08:58:23.219Z,19.90
2018-04-14T09:00:49.604Z,19.90
2018-04-14T09:03:16.760Z,20.30
2018-04-14T09:05:43.966Z,20.30
2018-04-14T09:08:10.366Z,20.20
2018-04-14T09:10:36.812Z,20.20
2018-04-14T09:13:03.209Z,20.20
2018-04-14T09:15:30.357Z,20.10
2018-04-14T09:17:57.520Z,20.30
2018-04-14T09:20:24.714Z,20.30
2018-04-14T09:22:51.126Z,20.30
2018-04-14T09:25:17.517Z,20.70
2018-04-14T09:27:44.867Z,20.40
2018-04-14T09:30:11.300Z,20.40
2018-04-14T09:32:37.706Z,20.60
2018-04-14T09:35:04.135Z,21.00
2018-04-14T09:37:30.550Z,20.80
2018-04-14T09:39:56.933Z,20.70
2018-04-14T09:42:23.346Z,20.50
2018-04-14T09:44:49.751Z,20.60
2018-04-14T09:47:16.131Z,20.70
2018-04-14T09:49:42.899Z,20.50
2018-04-14T09:52:09.294Z,20.70
2018-04-14T09:54:36.434Z,20.80
2018-04-14T09:57:02.821Z,20.80
2018-04-14T09:59:29.296Z,20.90
2018-04-14T10:01:55.757Z,21.00
2018-04-14T10:04:22.186Z,21.10
2018-04-14T10:06:48.594Z,21.00
2018-04-14T10:09:14.996Z,21.00
2018-04-14T10:11:41.536Z,21.00
2018-04-14T10:14:07.941Z,21.50
2018-04-14T10:16:35.068Z,21.90
2018-04-14T10:19:02.205Z,22.20
2018-04-14T10:21:28.591Z,22.10
2018-04-14T10:23:55.939Z,21.70
2018-04-14T10:26:22.359Z,21.90
2018-04-14T10:28:49.492Z,20.00
2018-04-14T10:31:15.895Z,20.00
2018-04-14T10:33:42.294Z,19.70
2018-04-14T10:36:08.705Z,19.90
2018-04-14T10:38:35.843Z,20.50
2018-04-14T10:41:03.021Z,20.40
2018-04-14T10:43:29.432Z,20.40
2018-04-14T10:45:56.586Z,20.90
2018-04-14T10:48:23.724Z,20.80
2018-04-14T10:50:51.590Z,20.90
2018-04-14T10:53:18.780Z,21.30
2018-04-14T10:55:45.209Z,21.30
2018-04-14T10:58:12.322Z,21.40
2018-04-14T11:00:39.529Z,20.20
2018-04-14T11:03:05.914Z,20.20
2018-04-14T11:05:33.059Z,21.30
2018-04-14T11:08:00.202Z,21.20
2018-04-14T11:10:28.071Z,21.40
2018-04-14T11:12:55.316Z,21.20
2018-04-14T11:15:23.246Z,20.80
2018-04-14T11:17:49.635Z,20.80
2018-04-14T11:20:16.794Z,20.30
2018-04-14T11:22:43.925Z,20.70
2018-04-14T11:25:10.341Z,20.60
2018-04-14T11:27:36.753Z,20.60
2018-04-14T11:30:03.193Z,20.20
2018-04-14T11:32:29.670Z,20.90
2018-04-14T11:34:56.831Z,21.20
2018-04-14T11:37:23.228Z,21.20
2018-04-14T11:39:50.365Z,21.10
2018-04-14T11:42:16.874Z,21.10
2018-04-14T11:44:43.284Z,21.00
2018-04-14T11:47:09.687Z,20.70
2018-04-14T11:49:36.079Z,20.60
2018-04-14T11:52:02.532Z,19.90
2018-04-14T11:54:28.951Z,19.70
2018-04-14T11:56:55.368Z,20.30
2018-04-14T11:59:21.769Z,21.10
2018-04-14T12:01:49.028Z,22.00
2018-04-14T12:04:16.164Z,21.40
2018-04-14T12:06:43.377Z,21.30
2018-04-14T12:09:09.812Z,21.30
2018-04-14T12:11:36.207Z,21.30
2018-04-14T12:14:02.622Z,21.70
2018-04-14T12:16:29.776Z,22.20
2018-04-14T12:21:56.556Z,21.10
2018-04-14T12:24:22.964Z,20.20
2018-04-14T12:26:50.106Z,20.60
2018-04-14T12:29:17.253Z,20.40
2018-04-14T12:31:43.652Z,20.40
2018-04-14T12:34:16.064Z,20.10
2018-04-14T12:36:43.217Z,19.70
2018-04-14T12:39:10.333Z,20.50
2018-04-14T12:41:36.731Z,20.50
2018-04-14T12:44:03.130Z,20.30
2018-04-14T12:46:30.262Z,21.10
2018-04-14T12:48:56.673Z,21.10
2018-04-14T12:51:23.091Z,21.30
2018-04-14T12:53:49.486Z,21.20
2018-04-14T12:56:16.644Z,20.40
2018-04-14T12:58:43.053Z,20.30
2018-04-14T13:01:10.199Z,20.30
2018-04-14T13:03:38.228Z,20.30
2018-04-14T13:06:04.648Z,20.30
2018-04-14T13:08:31.143Z,20.00
2018-04-14T13:10:58.331Z,20.20
2018-04-14T13:13:24.762Z,20.20
2018-04-14T13:15:51.192Z,20.40
2018-04-14T13:18:17.592Z,20.40
2018-04-14T13:20:44.753Z,21.00
2018-04-14T13:23:11.895Z,21.00
2018-04-14T13:25:39.048Z,20.80
2018-04-14T13:28:06.186Z,20.70
2018-04-14T13:30:32.595Z,20.60
2018-04-14T13:32:59.038Z,21.20
2018-04-14T13:35:25.431Z,21.30
2018-04-14T13:37:51.832Z,21.30
2018-04-14T13:40:18.970Z,20.60
2018-04-14T13:42:45.369Z,20.60
2018-04-14T13:45:11.773Z,20.60
2018-04-14T13:47:38.162Z,20.30
2018-04-14T13:50:05.282Z,20.70
2018-04-14T13:52:31.674Z,20.70
2018-04-14T13:54:58.825Z,20.20
2018-04-14T13:57:25.237Z,20.20
2018-04-14T13:59:51.639Z,20.10
2018-04-14T14:02:18.042Z,20.30
2018-04-14T14:04:44.452Z,20.70
2018-04-14T14:07:11.583Z,20.30
2018-04-14T14:09:38.887Z,20.30
2018-04-14T14:12:05.304Z,20.30
2018-04-14T14:14:31.763Z,20.60
2018-04-14T14:16:58.228Z,20.60
2018-04-14T14:19:25.388Z,20.00
2018-04-14T14:21:52.547Z,19.90
2018-04-14T14:24:19.723Z,19.80
2018-04-14T14:26:46.112Z,19.80
2018-04-14T14:29:12.496Z,19.80
2018-04-14T14:31:38.887Z,20.00
2018-04-14T14:34:06.039Z,20.40
2018-04-14T14:36:32.404Z,20.40
2018-04-14T14:38:58.812Z,20.20
2018-04-14T14:41:25.935Z,19.70
2018-04-14T14:43:52.336Z,19.70
2018-04-14T14:46:18.761Z,19.80
2018-04-14T14:48:45.178Z,20.00
2018-04-14T14:51:11.600Z,19.70
2018-04-14T14:53:38.752Z,19.80
2018-04-14T14:56:05.151Z,19.80
2018-04-14T14:58:31.535Z,20.00
2018-04-14T15:00:58.000Z,20.00
2018-04-14T15:03:24.388Z,19.90
2018-04-14T15:05:50.787Z,19.80
2018-04-14T15:08:17.223Z,19.50
2018-04-14T15:10:45.099Z,19.80
2018-04-14T15:13:11.559Z,19.80
2018-04-14T15:15:37.967Z,19.50
2018-04-14T15:18:05.132Z,19.40
2018-04-14T15:20:32.340Z,19.50
2018-04-14T15:22:58.740Z,19.40
2018-04-14T15:25:25.137Z,19.50
2018-04-14T15:27:52.268Z,19.20
2018-04-14T15:30:18.643Z,19.20
2018-04-14T15:32:45.772Z,19.00
2018-04-14T15:35:12.922Z,19.10
2018-04-14T15:37:40.052Z,19.10
2018-04-14T15:40:06.465Z,19.00
2018-04-14T15:42:32.919Z,19.00
2018-04-14T15:44:59.309Z,19.00
2018-04-14T15:47:25.707Z,18.90
2018-04-14T15:49:52.936Z,18.90
2018-04-14T15:52:19.324Z,18.90
2018-04-14T15:54:45.722Z,18.90
2018-04-14T15:57:12.860Z,18.90
2018-04-14T15:59:39.259Z,18.90
2018-04-14T16:02:05.659Z,18.90
2018-04-14T16:04:32.122Z,19.00
2018-04-14T16:06:59.229Z,18.70
2018-04-14T16:09:26.375Z,18.70
2018-04-14T16:11:53.506Z,18.70
2018-04-14T16:14:19.911Z,18.70
2018-04-14T16:16:46.464Z,18.80
2018-04-14T16:19:12.936Z,18.70
2018-04-14T16:21:40.133Z,18.80
2018-04-14T16:24:06.543Z,18.80
2018-04-14T16:26:32.967Z,18.70
2018-04-14T16:28:59.403Z,18.70
2018-04-14T16:31:25.803Z,18.90
2018-04-14T16:33:52.948Z,18.80
2018-04-14T16:36:19.388Z,18.80
2018-04-14T16:41:26.830Z,18.70
2018-04-14T16:43:53.281Z,18.60
2018-04-14T16:46:19.677Z,18.50
2018-04-14T16:48:46.092Z,18.40
2018-04-14T16:51:12.505Z,18.40
2018-04-14T16:53:38.920Z,18.20
2018-04-14T16:56:05.402Z,18.20
2018-04-14T16:58:32.546Z,18.20
2018-04-14T17:00:59.704Z,18.00
2018-04-14T17:03:26.867Z,18.00
2018-04-14T17:05:53.999Z,18.00
2018-04-14T17:08:20.424Z,18.00
2018-04-14T17:10:47.593Z,18.00
2018-04-14T17:13:14.773Z,18.00
2018-04-14T17:15:41.187Z,17.90
2018-04-14T17:18:07.582Z,18.10
2018-04-14T17:20:33.998Z,18.10
2018-04-14T17:23:00.472Z,17.80
2018-04-14T17:25:26.920Z,17.70
2018-04-14T17:27:53.323Z,17.80
2018-04-14T17:30:19.916Z,17.80
2018-04-14T17:32:46.384Z,17.70
2018-04-14T17:35:12.790Z,17.60
2018-04-14T17:37:39.194Z,17.80
2018-04-14T17:40:05.638Z,17.80
2018-04-14T17:42:32.076Z,17.70
2018-04-14T17:44:58.477Z,17.70
2018-04-14T17:47:25.621Z,17.80
2018-04-14T17:49:52.778Z,17.90
2018-04-14T17:52:19.264Z,17.90
2018-04-14T17:54:45.663Z,17.70
2018-04-14T17:57:12.078Z,17.40
2018-04-14T17:59:38.528Z,17.30
2018-04-14T18:02:05.002Z,17.00
2018-04-14T18:04:31.389Z,16.90
2018-04-14T18:06:58.578Z,16.90
2018-04-14T18:09:25.213Z,16.60
2018-04-14T18:11:51.612Z,16.20
2018-04-14T18:14:18.076Z,16.30
2018-04-14T18:16:44.519Z,16.00
2018-04-14T18:19:10.914Z,16.10
2018-04-14T18:21:37.661Z,16.00
2018-04-14T18:24:04.117Z,16.00
2018-04-14T18:26:30.634Z,15.90
2018-04-14T18:28:57.099Z,15.90
2018-04-14T18:31:24.333Z,15.70
2018-04-14T18:33:52.471Z,15.30
2018-04-14T18:36:18.965Z,14.90
2018-04-14T18:38:45.388Z,14.60
2018-04-14T18:41:11.821Z,14.40
2018-04-14T18:43:38.242Z,14.20
2018-04-14T18:46:04.652Z,14.30
2018-04-14T18:48:31.042Z,14.30
2018-04-14T18:50:57.452Z,14.20
2018-04-14T18:53:23.865Z,14.20
2018-04-14T18:55:50.251Z,14.20
2018-04-14T18:58:17.409Z,14.20
2018-04-14T19:00:44.542Z,14.00
2018-04-14T19:03:10.932Z,13.90
2018-04-14T19:05:37.372Z,13.80
2018-04-14T19:08:03.783Z,13.50
2018-04-14T19:10:30.179Z,13.20
2018-04-14T19:12:57.363Z,13.10
2018-04-14T19:15:23.762Z,13.10
2018-04-14T19:17:50.213Z,13.00
2018-04-14T19:20:16.571Z,12.90
2018-04-14T19:22:42.968Z,12.90
2018-04-14T19:25:10.133Z,12.70
2018-04-14T19:27:36.557Z,12.70
2018-04-14T19:30:03.008Z,12.50
2018-04-14T19:32:29.493Z,12.40
2018-04-14T19:34:56.642Z,12.20
2018-04-14T19:37:23.036Z,12.20
2018-04-14T19:39:49.451Z,12.20
2018-04-14T19:42:16.623Z,12.10
2018-04-14T19:44:43.027Z,12.00
2018-04-14T19:47:10.167Z,11.80
2018-04-14T19:49:37.302Z,11.80
2018-04-14T19:52:04.508Z,12.00
2018-04-14T19:54:30.907Z,11.90
2018-04-14T19:56:57.356Z,12.00
2018-04-14T19:59:23.746Z,12.00
2018-04-14T20:01:50.547Z,12.10
2018-04-14T20:04:17.124Z,12.30
2018-04-14T20:06:43.571Z,12.30
2018-04-14T20:09:11.122Z,12.20
2018-04-14T20:11:37.525Z,12.20
2018-04-14T20:14:03.945Z,12.10
2018-04-14T20:16:30.339Z,12.00
2018-04-14T20:18:57.478Z,11.90
2018-04-14T20:21:24.668Z,11.70
2018-04-14T20:23:51.066Z,11.70
2018-04-14T20:26:18.191Z,11.70
2018-04-14T20:28:44.599Z,11.70
2018-04-14T20:31:11.043Z,11.80
2018-04-14T20:33:37.502Z,11.70
2018-04-14T20:36:04.073Z,11.80
2018-04-14T20:38:30.463Z,12.00
2018-04-14T20:40:56.914Z,12.00
2018-04-14T20:43:24.055Z,11.90
2018-04-14T20:45:51.228Z,11.90
2018-04-14T20:48:17.624Z,11.90
2018-04-14T20:50:44.036Z,12.00
2018-04-14T20:53:10.417Z,12.20
2018-04-14T20:55:37.585Z,12.50
2018-04-14T20:58:03.988Z,12.50
2018-04-14T21:00:30.382Z,12.70
2018-04-14T21:02:56.754Z,12.80
2018-04-14T21:05:23.158Z,12.80
2018-04-14T21:07:50.330Z,12.70
2018-04-14T21:10:18.218Z,12.50
2018-04-14T21:12:44.668Z,12.50
2018-04-14T21:15:11.075Z,12.40
2018-04-14T21:17:38.218Z,12.00
2018-04-14T21:20:04.618Z,11.90
2018-04-14T21:22:31.049Z,11.70
2018-04-14T21:24:57.471Z,11.40
2018-04-14T21:27:23.876Z,11.20
2018-04-14T21:29:50.279Z,10.90
2018-04-14T21:32:16.671Z,10.60
2018-04-14T21:34:43.100Z,10.60
2018-04-14T21:37:09.511Z,10.80
2018-04-14T21:39:35.957Z,11.00
2018-04-14T21:42:02.367Z,11.30
2018-04-14T21:44:29.521Z,11.70
2018-04-14T21:46:55.913Z,11.70
2018-04-14T21:49:22.315Z,11.70
2018-04-14T21:51:48.716Z,11.60
2018-04-14T21:54:15.129Z,11.60
2018-04-14T21:56:41.539Z,11.50
2018-04-14T21:59:07.924Z,11.30
2018-04-14T22:01:34.299Z,11.10
2018-04-14T22:04:00.699Z,11.00
2018-04-14T22:06:27.153Z,10.80
2018-04-14T22:08:53.550Z,10.60
2018-04-14T22:11:19.986Z,10.30
2018-04-14T22:13:46.411Z,10.20
2018-04-14T22:16:12.815Z,10.00
2018-04-14T22:18:39.245Z,10.00
2018-04-14T22:21:05.666Z,9.90
2018-04-14T22:23:32.081Z,9.90
2018-04-14T22:25:58.506Z,10.00
2018-04-14T22:28:24.918Z,10.00
2018-04-14T22:30:51.314Z,10.00
2018-04-14T22:33:18.458Z,10.10
2018-04-14T22:35:44.858Z,10.00
2018-04-14T22:38:11.260Z,10.10
2018-04-14T22:40:37.658Z,10.20
2018-04-14T22:43:04.100Z,10.30
2018-04-14T22:45:31.233Z,10.40
2018-04-14T22:47:57.632Z,10.40
2018-04-14T22:50:24.035Z,10.50
2018-04-14T22:52:50.417Z,10.50
2018-04-14T22:55:16.802Z,10.60
2018-04-14T22:57:43.216Z,10.60
2018-04-14T23:00:09.668Z,10.70
2018-04-14T23:02:36.046Z,10.60
2018-04-14T23:05:02.502Z,10.50
2018-04-14T23:07:29.628Z,9.80
2018-04-14T23:09:56.004Z,9.80
2018-04-14T23:12:23.134Z,10.00
2018-04-14T23:14:50.328Z,10.30
2018-04-14T23:17:16.748Z,10.30
2018-04-14T23:19:43.141Z,10.60
2018-04-14T23:22:13.888Z,10.50
2018-04-14T23:24:41.036Z,10.30
2018-04-14T23:27:08.219Z,10.00
2018-04-14T23:29:34.637Z,10.00
2018-04-14T23:32:01.028Z,9.90
2018-04-14T23:34:27.432Z,9.80
2018-04-14T23:36:53.819Z,9.90
2018-04-14T23:39:20.962Z,10.00
2018-04-14T23:41:48.262Z,10.00
2018-04-14T23:44:14.675Z,10.00
2018-04-14T23:46:41.076Z,10.00
2018-04-14T23:49:07.464Z,9.90
2018-04-14T23:51:33.874Z,9.90
2018-04-14T23:54:00.271Z,9.80
2018-04-14T23:56:26.748Z,9.70
2018-04-14T23:58:53.128Z,9.50
